sensor_id;sensor_type;location;lat;lon;timestamp;pressure;altitude;pressure_sealevel;temperature;humidity
21096;BME280;10706;49.036;12.112;2022-11-23T00:01:25;96511.31;;;3.53;100.00
21096;BME280;10706;49.036;12.112;2022-11-23T00:03:55;96516.66;;;3.65;100.00
21096;BME280;10706;49.036;12.112;2022-11-23T00:06:22;96514.91;;;3.59;100.00
21096;BME280;10706;49.036;12.112;2022-11-23T00:08:50;96517.00;;;3.50;100.00
21096;BME280;10706;49.036;12.112;2022-11-23T00:11:17;96518.03;;;3.49;99.99
21096;BME280;10706;49.036;12.112;2022-11-23T00:13:44;96517.38;;;3.54;100.00
21096;BME280;10706;49.036;12.112;2022-11-23T00:16:19;96523.66;;;3.53;100.00
21096;BME280;10706;49.036;12.112;2022-11-23T00:18:45;96523.25;;;3.56;100.00
21096;BME280;10706;49.036;12.112;2022-11-23T00:21:16;96528.59;;;3.49;100.00
21096;BME280;10706;49.036;12.112;2022-11-23T00:23:44;96522.66;;;3.54;100.00
21096;BME280;10706;49.036;12.112;2022-11-23T00:26:10;96517.75;;;3.57;100.00
21096;BME280;10706;49.036;12.112;2022-11-23T00:28:36;96521.50;;;3.49;100.00
21096;BME280;10706;49.036;12.112;2022-11-23T00:31:09;96520.44;;;3.50;100.00
21096;BME280;10706;49.036;12.112;2022-11-23T00:33:35;96518.34;;;3.59;100.00
21096;BME280;10706;49.036;12.112;2022-11-23T00:36:07;96511.00;;;3.61;100.00
21096;BME280;10706;49.036;12.112;2022-11-23T00:38:34;96516.94;;;3.57;100.00
21096;BME280;10706;49.036;12.112;2022-11-23T00:41:05;96525.22;;;3.60;100.00
21096;BME280;10706;49.036;12.112;2022-11-23T00:43:31;96522.81;;;3.59;100.00
21096;BME280;10706;49.036;12.112;2022-11-23T00:48:43;96525.22;;;3.60;100.00
21096;BME280;10706;49.036;12.112;2022-11-23T00:51:12;96523.25;;;3.56;100.00
21096;BME280;10706;49.036;12.112;2022-11-23T00:53:38;96528.38;;;3.69;100.00
21096;BME280;10706;49.036;12.112;2022-11-23T00:56:05;96522.50;;;3.48;100.00
21096;BME280;10706;49.036;12.112;2022-11-23T00:58:31;96523.03;;;3.39;100.00
21096;BME280;10706;49.036;12.112;2022-11-23T01:01:12;96527.50;;;3.38;100.00
21096;BME280;10706;49.036;12.112;2022-11-23T01:03:42;96523.03;;;3.39;100.00
21096;BME280;10706;49.036;12.112;2022-11-23T01:06:19;96519.72;;;3.43;100.00
21096;BME280;10706;49.036;12.112;2022-11-23T01:09:13;96518.50;;;3.46;100.00
21096;BME280;10706;49.036;12.112;2022-11-23T01:11:39;96515.84;;;3.46;100.00
21096;BME280;10706;49.036;12.112;2022-11-23T01:14:05;96521.03;;;3.53;100.00
21096;BME280;10706;49.036;12.112;2022-11-23T01:16:36;96521.19;;;3.39;100.00
21096;BME280;10706;49.036;12.112;2022-11-23T01:19:10;96524.28;;;3.36;100.00
21096;BME280;10706;49.036;12.112;2022-11-23T01:21:36;96527.63;;;3.43;100.00
21096;BME280;10706;49.036;12.112;2022-11-23T01:24:09;96525.81;;;3.44;100.00
21096;BME280;10706;49.036;12.112;2022-11-23T01:26:36;96522.97;;;3.45;100.00
21096;BME280;10706;49.036;12.112;2022-11-23T01:29:02;96522.13;;;3.45;100.00
21096;BME280;10706;49.036;12.112;2022-11-23T01:31:28;96521.50;;;3.49;100.00
21096;BME280;10706;49.036;12.112;2022-11-23T01:33:56;96524.41;;;3.41;100.00
21096;BME280;10706;49.036;12.112;2022-11-23T01:36:29;96521.75;;;3.41;100.00
21096;BME280;10706;49.036;12.112;2022-11-23T01:38:58;96524.69;;;3.33;100.00
21096;BME280;10706;49.036;12.112;2022-11-23T01:41:34;96528.66;;;3.24;100.00
21096;BME280;10706;49.036;12.112;2022-11-23T01:44:17;96525.84;;;3.19;100.00
21096;BME280;10706;49.036;12.112;2022-11-23T01:46:45;96537.00;;;3.21;100.00
21096;BME280;10706;49.036;12.112;2022-11-23T01:49:11;96539.63;;;3.21;100.00
21096;BME280;10706;49.036;12.112;2022-11-23T01:51:44;96540.88;;;3.18;100.00
21096;BME280;10706;49.036;12.112;2022-11-23T01:54:25;96543.09;;;3.21;100.00
21096;BME280;10706;49.036;12.112;2022-11-23T01:57:04;96546.81;;;3.14;100.00
21096;BME280;10706;49.036;12.112;2022-11-23T01:59:32;96544.47;;;3.24;100.00
21096;BME280;10706;49.036;12.112;2022-11-23T02:02:00;96548.75;;;3.25;100.00
21096;BME280;10706;49.036;12.112;2022-11-23T02:04:31;96555.53;;;3.14;100.00
21096;BME280;10706;49.036;12.112;2022-11-23T02:07:00;96547.84;;;3.13;100.00
21096;BME280;10706;49.036;12.112;2022-11-23T02:09:30;96545.16;;;3.19;100.00
21096;BME280;10706;49.036;12.112;2022-11-23T02:11:57;96554.22;;;3.23;100.00
21096;BME280;10706;49.036;12.112;2022-11-23T02:14:23;96563.81;;;3.18;100.00
21096;BME280;10706;49.036;12.112;2022-11-23T02:16:49;96570.31;;;3.15;100.00
21096;BME280;10706;49.036;12.112;2022-11-23T02:22:01;96563.81;;;3.18;100.00
21096;BME280;10706;49.036;12.112;2022-11-23T02:24:34;96565.03;;;3.15;100.00
21096;BME280;10706;49.036;12.112;2022-11-23T02:27:04;96568.88;;;3.19;100.00
21096;BME280;10706;49.036;12.112;2022-11-23T02:29:31;96561.09;;;3.24;100.00
21096;BME280;10706;49.036;12.112;2022-11-23T02:31:59;96564.69;;;3.30;100.00
21096;BME280;10706;49.036;12.112;2022-11-23T02:34:24;96559.28;;;3.25;100.00
21096;BME280;10706;49.036;12.112;2022-11-23T02:36:52;96552.38;;;3.24;100.00
21096;BME280;10706;49.036;12.112;2022-11-23T02:39:39;96554.50;;;3.15;100.00
21096;BME280;10706;49.036;12.112;2022-11-23T02:42:07;96551.81;;;3.22;100.00
21096;BME280;10706;49.036;12.112;2022-11-23T02:47:29;96546.81;;;3.32;100.00
21096;BME280;10706;49.036;12.112;2022-11-23T02:49:55;96547.88;;;3.31;100.00
21096;BME280;10706;49.036;12.112;2022-11-23T02:52:20;96552.00;;;3.20;100.00
21096;BME280;10706;49.036;12.112;2022-11-23T02:54:46;96556.31;;;3.15;100.00
21096;BME280;10706;49.036;12.112;2022-11-23T02:57:12;96553.69;;;3.15;100.00
21096;BME280;10706;49.036;12.112;2022-11-23T02:59:38;96560.25;;;3.05;100.00
21096;BME280;10706;49.036;12.112;2022-11-23T03:02:04;96564.34;;;3.01;100.00
21096;BME280;10706;49.036;12.112;2022-11-23T03:04:31;96556.25;;;3.03;100.00
21096;BME280;10706;49.036;12.112;2022-11-23T03:06:57;96555.00;;;3.05;100.00
21096;BME280;10706;49.036;12.112;2022-11-23T03:09:23;96558.06;;;3.02;100.00
21096;BME280;10706;49.036;12.112;2022-11-23T03:11:51;96563.09;;;3.04;100.00
21096;BME280;10706;49.036;12.112;2022-11-23T03:14:17;96558.97;;;3.15;100.00
21096;BME280;10706;49.036;12.112;2022-11-23T03:16:42;96553.28;;;3.18;100.00
21096;BME280;10706;49.036;12.112;2022-11-23T03:19:08;96561.56;;;3.21;100.00
21096;BME280;10706;49.036;12.112;2022-11-23T03:21:34;96549.59;;;3.19;100.00
21096;BME280;10706;49.036;12.112;2022-11-23T03:24:00;96553.78;;;3.26;100.00
21096;BME280;10706;49.036;12.112;2022-11-23T03:26:26;96561.47;;;3.28;100.00
21096;BME280;10706;49.036;12.112;2022-11-23T03:28:52;96558.56;;;3.36;100.00
21096;BME280;10706;49.036;12.112;2022-11-23T03:31:18;96562.06;;;3.30;100.00
21096;BME280;10706;49.036;12.112;2022-11-23T03:33:44;96561.06;;;3.31;100.00
21096;BME280;10706;49.036;12.112;2022-11-23T03:36:09;96564.28;;;3.33;100.00
21096;BME280;10706;49.036;12.112;2022-11-23T03:38:35;96569.19;;;3.29;100.00
21096;BME280;10706;49.036;12.112;2022-11-23T03:41:01;96564.31;;;3.26;100.00
21096;BME280;10706;49.036;12.112;2022-11-23T03:43:26;96566.75;;;3.28;100.00
21096;BME280;10706;49.036;12.112;2022-11-23T03:45:52;96569.75;;;3.31;100.00
21096;BME280;10706;49.036;12.112;2022-11-23T03:48:18;96566.38;;;3.24;100.00
21096;BME280;10706;49.036;12.112;2022-11-23T03:50:44;96563.75;;;3.24;100.00
21096;BME280;10706;49.036;12.112;2022-11-23T03:53:10;96567.03;;;3.20;100.00
21096;BME280;10706;49.036;12.112;2022-11-23T03:55:36;96558.47;;;3.24;100.00
21096;BME280;10706;49.036;12.112;2022-11-23T03:58:02;96553.78;;;3.26;100.00
21096;BME280;10706;49.036;12.112;2022-11-23T04:00:30;96565.53;;;3.30;100.00
21096;BME280;10706;49.036;12.112;2022-11-23T04:02:56;96560.09;;;3.25;100.00
21096;BME280;10706;49.036;12.112;2022-11-23T04:05:22;96552.94;;;3.33;100.00
21096;BME280;10706;49.036;12.112;2022-11-23T04:07:48;96558.84;;;3.28;100.00
21096;BME280;10706;49.036;12.112;2022-11-23T04:10:16;96550.13;;;3.27;100.00
21096;BME280;10706;49.036;12.112;2022-11-23T04:12:43;96549.03;;;3.35;100.00
21096;BME280;10706;49.036;12.112;2022-11-23T04:15:09;96543.97;;;3.34;100.00
21096;BME280;10706;49.036;12.112;2022-11-23T04:17:35;96548.13;;;3.23;100.00
21096;BME280;10706;49.036;12.112;2022-11-23T04:20:01;96555.63;;;3.26;100.00
21096;BME280;10706;49.036;12.112;2022-11-23T04:22:26;96550.75;;;3.23;100.00
21096;BME280;10706;49.036;12.112;2022-11-23T04:24:52;96540.84;;;3.25;100.00
21096;BME280;10706;49.036;12.112;2022-11-23T04:27:18;96547.72;;;3.44;100.00
21096;BME280;10706;49.036;12.112;2022-11-23T04:29:44;96549.41;;;3.39;100.00
21096;BME280;10706;49.036;12.112;2022-11-23T04:32:09;96553.56;;;3.28;100.00
21096;BME280;10706;49.036;12.112;2022-11-23T04:34:35;96550.66;;;3.36;100.00
21096;BME280;10706;49.036;12.112;2022-11-23T04:37:01;96553.88;;;3.38;100.00
21096;BME280;10706;49.036;12.112;2022-11-23T04:39:27;96552.84;;;3.39;100.00
21096;BME280;10706;49.036;12.112;2022-11-23T04:41:53;96544.50;;;3.42;100.00
21096;BME280;10706;49.036;12.112;2022-11-23T04:44:18;96553.50;;;3.35;100.00
21096;BME280;10706;49.036;12.112;2022-11-23T04:46:46;96557.63;;;3.30;100.00
21096;BME280;10706;49.036;12.112;2022-11-23T04:49:12;96552.72;;;3.34;100.00
21096;BME280;10706;49.036;12.112;2022-11-23T04:51:37;96554.00;;;3.43;100.00
21096;BME280;10706;49.036;12.112;2022-11-23T04:54:03;96555.94;;;3.36;100.00
21096;BME280;10706;49.036;12.112;2022-11-23T04:56:29;96560.13;;;3.44;100.00
21096;BME280;10706;49.036;12.112;2022-11-23T04:58:55;96552.34;;;3.30;100.00
21096;BME280;10706;49.036;12.112;2022-11-23T05:01:21;96550.34;;;3.26;100.00
21096;BME280;10706;49.036;12.112;2022-11-23T05:03:47;96559.22;;;3.31;100.00
21096;BME280;10706;49.036;12.112;2022-11-23T05:06:13;96557.25;;;3.27;100.00
21096;BME280;10706;49.036;12.112;2022-11-23T05:08:38;96558.63;;;3.29;100.00
21096;BME280;10706;49.036;12.112;2022-11-23T05:11:04;96556.41;;;3.26;100.00
21096;BME280;10706;49.036;12.112;2022-11-23T05:13:30;96553.13;;;3.31;100.00
21096;BME280;10706;49.036;12.112;2022-11-23T05:15:56;96549.91;;;3.29;100.00
21096;BME280;10706;49.036;12.112;2022-11-23T05:18:22;96554.53;;;3.34;100.00
21096;BME280;10706;49.036;12.112;2022-11-23T05:20:48;96552.72;;;3.34;100.00
21096;BME280;10706;49.036;12.112;2022-11-23T05:23:13;96562.66;;;3.32;100.00
21096;BME280;10706;49.036;12.112;2022-11-23T05:25:39;96559.75;;;3.40;100.00
21096;BME280;10706;49.036;12.112;2022-11-23T05:28:05;96556.31;;;3.40;100.00
21096;BME280;10706;49.036;12.112;2022-11-23T05:30:31;96556.34;;;3.33;100.00
21096;BME280;10706;49.036;12.112;2022-11-23T05:33:03;96557.63;;;3.30;100.00
21096;BME280;10706;49.036;12.112;2022-11-23T05:35:29;96556.72;;;3.37;100.00
21096;BME280;10706;49.036;12.112;2022-11-23T05:37:55;96557.38;;;3.32;100.00
21096;BME280;10706;49.036;12.112;2022-11-23T05:40:21;96552.25;;;3.37;100.00
21096;BME280;10706;49.036;12.112;2022-11-23T05:42:47;96555.31;;;3.16;100.00
21096;BME280;10706;49.036;12.112;2022-11-23T05:45:13;96555.00;;;3.05;100.00
21096;BME280;10706;49.036;12.112;2022-11-23T05:47:39;96553.22;;;2.99;100.00
21096;BME280;10706;49.036;12.112;2022-11-23T05:50:05;96559.69;;;3.03;100.00
21096;BME280;10706;49.036;12.112;2022-11-23T05:52:31;96557.13;;;3.15;100.00
21096;BME280;10706;49.036;12.112;2022-11-23T05:54:57;96560.06;;;3.07;100.00
21096;BME280;10706;49.036;12.112;2022-11-23T05:57:23;96555.88;;;2.99;100.00
21096;BME280;10706;49.036;12.112;2022-11-23T05:59:48;96566.84;;;2.96;100.00
21096;BME280;10706;49.036;12.112;2022-11-23T06:02:14;96559.38;;;2.93;100.00
21096;BME280;10706;49.036;12.112;2022-11-23T06:04:40;96552.31;;;2.87;100.00
21096;BME280;10706;49.036;12.112;2022-11-23T06:07:06;96552.84;;;2.96;100.00
21096;BME280;10706;49.036;12.112;2022-11-23T06:09:31;96547.56;;;2.96;100.00
21096;BME280;10706;49.036;12.112;2022-11-23T06:11:57;96545.75;;;2.96;100.00
21096;BME280;10706;49.036;12.112;2022-11-23T06:14:23;96548.16;;;2.98;100.00
21096;BME280;10706;49.036;12.112;2022-11-23T06:16:50;96551.00;;;2.96;100.00
21096;BME280;10706;49.036;12.112;2022-11-23T06:19:15;96549.41;;;2.95;100.00
21096;BME280;10706;49.036;12.112;2022-11-23T06:21:41;96556.44;;;3.01;100.00
21096;BME280;10706;49.036;12.112;2022-11-23T06:24:07;96555.56;;;3.07;100.00
21096;BME280;10706;49.036;12.112;2022-11-23T06:26:33;96558.81;;;3.09;100.00
21096;BME280;10706;49.036;12.112;2022-11-23T06:28:58;96558.59;;;3.11;100.00
21096;BME280;10706;49.036;12.112;2022-11-23T06:31:24;96556.03;;;3.04;100.00
21096;BME280;10706;49.036;12.112;2022-11-23T06:33:51;96563.66;;;3.13;100.00
21096;BME280;10706;49.036;12.112;2022-11-23T06:36:17;96558.75;;;3.16;100.00
21096;BME280;10706;49.036;12.112;2022-11-23T06:38:43;96566.88;;;3.15;100.00
21096;BME280;10706;49.036;12.112;2022-11-23T06:41:09;96560.97;;;3.19;100.00
21096;BME280;10706;49.036;12.112;2022-11-23T06:43:34;96561.94;;;3.25;100.00
21096;BME280;10706;49.036;12.112;2022-11-23T06:46:04;96570.56;;;3.14;100.00
21096;BME280;10706;49.036;12.112;2022-11-23T06:48:31;96566.28;;;3.13;100.00
21096;BME280;10706;49.036;12.112;2022-11-23T06:51:00;96565.41;;;3.19;100.00
21096;BME280;10706;49.036;12.112;2022-11-23T06:53:27;96568.00;;;3.25;100.00
21096;BME280;10706;49.036;12.112;2022-11-23T06:55:58;96562.06;;;3.30;100.00
21096;BME280;10706;49.036;12.112;2022-11-23T06:58:24;96568.81;;;3.26;100.00
21096;BME280;10706;49.036;12.112;2022-11-23T07:00:50;96570.66;;;3.25;100.00
21096;BME280;10706;49.036;12.112;2022-11-23T07:03:23;96572.63;;;3.30;100.00
21096;BME280;10706;49.036;12.112;2022-11-23T07:05:49;96581.34;;;3.30;100.00
21096;BME280;10706;49.036;12.112;2022-11-23T07:08:15;96585.97;;;3.35;100.00
21096;BME280;10706;49.036;12.112;2022-11-23T07:10:41;96591.34;;;3.84;100.00
21096;BME280;10706;49.036;12.112;2022-11-23T07:13:09;96581.16;;;4.06;100.00
21096;BME280;10706;49.036;12.112;2022-11-23T07:15:36;96585.09;;;4.45;100.00
21096;BME280;10706;49.036;12.112;2022-11-23T07:18:03;96581.19;;;5.96;100.00
21096;BME280;10706;49.036;12.112;2022-11-23T07:20:29;96580.50;;;6.30;87.54
21096;BME280;10706;49.036;12.112;2022-11-23T07:23:09;96588.50;;;5.54;89.04
21096;BME280;10706;49.036;12.112;2022-11-23T07:25:36;96592.28;;;5.11;90.87
21096;BME280;10706;49.036;12.112;2022-11-23T07:28:05;96594.34;;;4.66;93.58
21096;BME280;10706;49.036;12.112;2022-11-23T07:30:33;96602.34;;;4.48;94.60
21096;BME280;10706;49.036;12.112;2022-11-23T07:33:09;96605.00;;;4.29;94.78
21096;BME280;10706;49.036;12.112;2022-11-23T07:35:36;96605.50;;;4.08;96.20
21096;BME280;10706;49.036;12.112;2022-11-23T07:38:03;96607.53;;;4.24;96.28
21096;BME280;10706;49.036;12.112;2022-11-23T07:40:30;96616.22;;;4.13;95.61
21096;BME280;10706;49.036;12.112;2022-11-23T07:43:00;96616.97;;;4.02;96.70
21096;BME280;10706;49.036;12.112;2022-11-23T07:45:27;96608.31;;;3.95;97.21
21096;BME280;10706;49.036;12.112;2022-11-23T07:48:06;96605.66;;;3.95;98.62
21096;BME280;10706;49.036;12.112;2022-11-23T07:50:34;96619.97;;;3.87;97.88
21096;BME280;10706;49.036;12.112;2022-11-23T07:53:04;96621.88;;;3.80;98.28
21096;BME280;10706;49.036;12.112;2022-11-23T07:55:32;96621.88;;;3.80;99.11
21096;BME280;10706;49.036;12.112;2022-11-23T07:57:58;96627.63;;;3.88;99.66
21096;BME280;10706;49.036;12.112;2022-11-23T08:00:26;96620.47;;;3.96;98.33
21096;BME280;10706;49.036;12.112;2022-11-23T08:02:52;96623.03;;;4.21;97.99
21096;BME280;10706;49.036;12.112;2022-11-23T08:05:18;96619.66;;;4.14;98.76
21096;BME280;10706;49.036;12.112;2022-11-23T08:07:44;96619.44;;;4.15;98.06
21096;BME280;10706;49.036;12.112;2022-11-23T08:10:13;96630.53;;;4.05;97.43
21096;BME280;10706;49.036;12.112;2022-11-23T08:12:39;96629.63;;;4.12;97.74
21096;BME280;10706;49.036;12.112;2022-11-23T08:15:06;96627.78;;;3.94;98.38
21096;BME280;10706;49.036;12.112;2022-11-23T08:17:32;96631.13;;;4.07;97.71
21096;BME280;10706;49.036;12.112;2022-11-23T08:19:58;96634.34;;;3.91;97.92
21096;BME280;10706;49.036;12.112;2022-11-23T08:22:23;96636.91;;;3.79;98.60
21096;BME280;10706;49.036;12.112;2022-11-23T08:24:51;96641.88;;;3.87;98.30
21096;BME280;10706;49.036;12.112;2022-11-23T08:27:16;96636.97;;;4.09;99.40
21096;BME280;10706;49.036;12.112;2022-11-23T08:29:42;96642.03;;;4.11;98.56
21096;BME280;10706;49.036;12.112;2022-11-23T08:32:08;96639.31;;;4.18;97.79
21096;BME280;10706;49.036;12.112;2022-11-23T08:34:34;96643.44;;;4.14;98.27
21096;BME280;10706;49.036;12.112;2022-11-23T08:36:59;96640.09;;;4.18;98.06
21096;BME280;10706;49.036;12.112;2022-11-23T08:39:25;96640.69;;;4.20;97.14
21096;BME280;10706;49.036;12.112;2022-11-23T08:41:51;96636.81;;;4.23;96.92
21096;BME280;10706;49.036;12.112;2022-11-23T08:44:17;96641.13;;;4.36;96.78
21096;BME280;10706;49.036;12.112;2022-11-23T08:46:42;96637.97;;;4.45;97.44
21096;BME280;10706;49.036;12.112;2022-11-23T08:49:08;96638.75;;;4.46;95.77
21096;BME280;10706;49.036;12.112;2022-11-23T08:51:34;96639.56;;;4.46;96.08
21096;BME280;10706;49.036;12.112;2022-11-23T08:54:00;96641.34;;;4.34;96.49
21096;BME280;10706;49.036;12.112;2022-11-23T08:56:26;96648.19;;;4.23;96.97
21096;BME280;10706;49.036;12.112;2022-11-23T08:58:51;96641.56;;;4.33;95.53
21096;BME280;10706;49.036;12.112;2022-11-23T09:01:17;96647.06;;;4.31;96.85
21096;BME280;10706;49.036;12.112;2022-11-23T09:03:44;96650.09;;;4.35;95.67
21096;BME280;10706;49.036;12.112;2022-11-23T09:06:10;96646.44;;;4.36;97.13
21096;BME280;10706;49.036;12.112;2022-11-23T09:08:36;96646.69;;;4.46;95.98
21096;BME280;10706;49.036;12.112;2022-11-23T09:11:06;96651.53;;;4.49;96.56
21096;BME280;10706;49.036;12.112;2022-11-23T09:13:35;96644.03;;;4.46;96.59
21096;BME280;10706;49.036;12.112;2022-11-23T09:16:06;96647.56;;;4.58;96.70
21096;BME280;10706;49.036;12.112;2022-11-23T09:18:34;96655.69;;;4.87;96.38
21096;BME280;10706;49.036;12.112;2022-11-23T09:21:04;96652.19;;;5.05;95.08
21096;BME280;10706;49.036;12.112;2022-11-23T09:23:31;96656.66;;;5.04;93.38
21096;BME280;10706;49.036;12.112;2022-11-23T09:25:58;96655.06;;;5.15;93.73
21096;BME280;10706;49.036;12.112;2022-11-23T09:28:24;96648.41;;;5.13;92.45
21096;BME280;10706;49.036;12.112;2022-11-23T09:30:53;96652.22;;;5.29;93.39
21096;BME280;10706;49.036;12.112;2022-11-23T09:33:20;96644.72;;;5.14;93.51
21096;BME280;10706;49.036;12.112;2022-11-23T09:35:46;96653.28;;;5.28;93.36
21096;BME280;10706;49.036;12.112;2022-11-23T09:38:11;96643.34;;;5.11;93.06
21096;BME280;10706;49.036;12.112;2022-11-23T09:40:39;96632.78;;;5.35;92.96
21096;BME280;10706;49.036;12.112;2022-11-23T09:46:08;96634.28;;;5.54;92.53
21096;BME280;10706;49.036;12.112;2022-11-23T09:48:41;96634.75;;;5.51;91.31
21096;BME280;10706;49.036;12.112;2022-11-23T09:51:20;96638.06;;;5.70;91.73
21096;BME280;10706;49.036;12.112;2022-11-23T09:53:52;96628.75;;;5.68;91.18
21096;BME280;10706;49.036;12.112;2022-11-23T09:56:42;96630.56;;;5.91;90.53
21096;BME280;10706;49.036;12.112;2022-11-23T09:59:22;96629.47;;;5.75;90.44
21096;BME280;10706;49.036;12.112;2022-11-23T10:01:52;96629.81;;;5.78;90.19
21096;BME280;10706;49.036;12.112;2022-11-23T10:04:19;96629.91;;;5.60;90.99
21096;BME280;10706;49.036;12.112;2022-11-23T10:06:57;96631.66;;;5.54;91.01
21096;BME280;10706;49.036;12.112;2022-11-23T10:12:29;96626.66;;;5.81;90.88
21096;BME280;10706;49.036;12.112;2022-11-23T10:15:23;96621.28;;;5.76;90.05
21096;BME280;10706;49.036;12.112;2022-11-23T10:20:58;96617.91;;;5.93;89.94
21096;BME280;10706;49.036;12.112;2022-11-23T10:26:39;96616.44;;;5.73;90.23
21096;BME280;10706;49.036;12.112;2022-11-23T10:29:31;96620.69;;;5.74;89.52
21096;BME280;10706;49.036;12.112;2022-11-23T10:31:58;96618.38;;;5.90;90.36
21096;BME280;10706;49.036;12.112;2022-11-23T10:37:13;96615.63;;;5.96;90.03
21096;BME280;10706;49.036;12.112;2022-11-23T10:39:40;96611.47;;;5.89;89.76
21096;BME280;10706;49.036;12.112;2022-11-23T10:42:29;96606.41;;;5.99;89.40
21096;BME280;10706;49.036;12.112;2022-11-23T10:44:55;96607.78;;;6.01;89.49
21096;BME280;10706;49.036;12.112;2022-11-23T10:47:50;96600.06;;;6.00;89.33
21096;BME280;10706;49.036;12.112;2022-11-23T10:50:33;96598.66;;;5.85;89.11
21096;BME280;10706;49.036;12.112;2022-11-23T10:55:53;96600.66;;;5.67;90.62
21096;BME280;10706;49.036;12.112;2022-11-23T10:58:47;96592.81;;;5.83;90.37
21096;BME280;10706;49.036;12.112;2022-11-23T11:01:17;96599.28;;;5.64;90.20
21096;BME280;10706;49.036;12.112;2022-11-23T11:03:43;96596.19;;;5.55;90.66
21096;BME280;10706;49.036;12.112;2022-11-23T11:06:09;96595.00;;;5.63;91.32
21096;BME280;10706;49.036;12.112;2022-11-23T11:09:03;96596.72;;;5.93;89.46
21096;BME280;10706;49.036;12.112;2022-11-23T11:11:36;96592.69;;;6.02;88.57
21096;BME280;10706;49.036;12.112;2022-11-23T11:14:18;96582.66;;;6.16;89.33
21096;BME280;10706;49.036;12.112;2022-11-23T11:16:53;96592.00;;;6.35;87.54
21096;BME280;10706;49.036;12.112;2022-11-23T11:19:32;96594.34;;;6.32;88.24
21096;BME280;10706;49.036;12.112;2022-11-23T11:24:46;96578.25;;;6.50;87.26
21096;BME280;10706;49.036;12.112;2022-11-23T11:27:23;96573.41;;;6.47;86.05
21096;BME280;10706;49.036;12.112;2022-11-23T11:30:06;96581.00;;;6.55;86.20
21096;BME280;10706;49.036;12.112;2022-11-23T11:33:09;96582.44;;;6.63;86.53
21096;BME280;10706;49.036;12.112;2022-11-23T11:35:41;96587.94;;;6.90;84.60
21096;BME280;10706;49.036;12.112;2022-11-23T11:38:30;96577.47;;;6.67;84.82
21096;BME280;10706;49.036;12.112;2022-11-23T11:41:07;96576.38;;;6.79;84.27
21096;BME280;10706;49.036;12.112;2022-11-23T11:43:43;96572.25;;;6.89;84.08
21096;BME280;10706;49.036;12.112;2022-11-23T11:46:37;96577.19;;;7.14;83.42
21096;BME280;10706;49.036;12.112;2022-11-23T11:49:18;96575.09;;;6.99;84.19
21096;BME280;10706;49.036;12.112;2022-11-23T11:51:53;96575.88;;;6.99;83.96
21096;BME280;10706;49.036;12.112;2022-11-23T11:54:45;96577.34;;;7.07;82.89
21096;BME280;10706;49.036;12.112;2022-11-23T11:57:25;96569.94;;;6.92;83.07
21096;BME280;10706;49.036;12.112;2022-11-23T11:59:56;96565.44;;;6.93;83.02
21096;BME280;10706;49.036;12.112;2022-11-23T12:02:25;96563.25;;;6.73;83.50
21096;BME280;10706;49.036;12.112;2022-11-23T12:05:23;96562.50;;;6.60;85.55
21096;BME280;10706;49.036;12.112;2022-11-23T12:08:36;96557.28;;;6.66;85.41
21096;BME280;10706;49.036;12.112;2022-11-23T12:11:05;96555.28;;;6.73;84.09
21096;BME280;10706;49.036;12.112;2022-11-23T12:13:34;96556.84;;;6.86;84.20
21096;BME280;10706;49.036;12.112;2022-11-23T12:19:58;96557.53;;;6.98;83.29
21096;BME280;10706;49.036;12.112;2022-11-23T12:25:40;96552.78;;;6.83;83.72
21096;BME280;10706;49.036;12.112;2022-11-23T12:37:26;96543.66;;;6.91;83.13
21096;BME280;10706;49.036;12.112;2022-11-23T12:40:18;96540.91;;;7.19;81.84
21096;BME280;10706;49.036;12.112;2022-11-23T12:42:49;96544.19;;;7.27;81.48
21096;BME280;10706;49.036;12.112;2022-11-23T12:46:09;96547.22;;;7.35;81.43
21096;BME280;10706;49.036;12.112;2022-11-23T12:48:51;96546.09;;;7.31;83.08
21096;BME280;10706;49.036;12.112;2022-11-23T12:58:05;96536.28;;;8.64;76.89
21096;BME280;10706;49.036;12.112;2022-11-23T13:00:42;96534.25;;;9.09;74.95
21096;BME280;10706;49.036;12.112;2022-11-23T13:09:37;96529.81;;;9.67;73.21
21096;BME280;10706;49.036;12.112;2022-11-23T13:23:42;96529.31;;;7.65;80.39
21096;BME280;10706;49.036;12.112;2022-11-23T13:26:24;96529.00;;;7.61;80.31
21096;BME280;10706;49.036;12.112;2022-11-23T13:28:55;96536.03;;;7.72;80.43
21096;BME280;10706;49.036;12.112;2022-11-23T13:31:32;96534.22;;;7.17;81.21
21096;BME280;10706;49.036;12.112;2022-11-23T13:34:03;96536.56;;;7.13;82.70
21096;BME280;10706;49.036;12.112;2022-11-23T13:37:00;96530.34;;;7.42;81.71
21096;BME280;10706;49.036;12.112;2022-11-23T13:42:25;96541.47;;;7.22;81.89
21096;BME280;10706;49.036;12.112;2022-11-23T13:45:26;96539.59;;;7.22;82.55
21096;BME280;10706;49.036;12.112;2022-11-23T13:50:57;96534.22;;;7.17;82.47
21096;BME280;10706;49.036;12.112;2022-11-23T13:53:39;96528.84;;;7.12;83.12
21096;BME280;10706;49.036;12.112;2022-11-23T13:56:31;96538.19;;;6.97;83.95
21096;BME280;10706;49.036;12.112;2022-11-23T14:04:37;96528.19;;;6.71;84.84
21096;BME280;10706;49.036;12.112;2022-11-23T14:10:15;96531.00;;;6.81;85.20
21096;BME280;10706;49.036;12.112;2022-11-23T14:13:19;96531.19;;;6.74;85.01
21096;BME280;10706;49.036;12.112;2022-11-23T14:15:58;96533.41;;;6.66;85.98
21096;BME280;10706;49.036;12.112;2022-11-23T14:18:53;96537.41;;;6.51;86.79
21096;BME280;10706;49.036;12.112;2022-11-23T14:22:01;96539.78;;;6.36;86.83
21096;BME280;10706;49.036;12.112;2022-11-23T14:24:42;96534.78;;;6.22;87.88
21096;BME280;10706;49.036;12.112;2022-11-23T14:36:48;96541.31;;;6.32;87.46
21096;BME280;10706;49.036;12.112;2022-11-23T14:42:34;96546.78;;;6.13;88.75
21096;BME280;10706;49.036;12.112;2022-11-23T14:45:05;96544.06;;;6.08;88.81
21096;BME280;10706;49.036;12.112;2022-11-23T14:47:31;96541.91;;;5.93;89.48
21096;BME280;10706;49.036;12.112;2022-11-23T14:49:57;96546.94;;;5.95;89.16